Terminal Aerodrome Forecast
Issued by NWS Charleston, WV

Home | Current Version | Previous Version | Text Only | Print | Product List | Glossary On
Versions: 1 2 3 4 5 6 7 8 9 10 11 12 13 14 15 16 17 18 19 20 21 22 23 24
000
FTUS41 KRLX 191100
TAFCRW
TAF
KCRW 191122Z 1912/2012 VRB03KT P6SM BKN200 WS020/16030KT
     FM191300 11007KT P6SM BKN100
     FM191600 12013KT 6SM -SHRA BR OVC035
     FM191900 12014G28KT 3SM SHRA BR OVC025
     FM200100 14013G25KT 6SM -SHRA BR OVC035
     FM200200 15011G23KT P6SM BKN035
     FM200500 19010G17KT P6SM BKN035
     FM200700 20008G13KT P6SM BKN025
     FM201100 18006KT 6SM BR BKN150=

USA.gov is the U.S. government's official web portal to all federal, state and local government web resources and services.